Terminal Aerodrome Forecast
Issued by NWS

Home | Current Version | Previous Version | Text Only | Print | Product List | Glossary On
Versions: 1 2 3 4 5 6 7 8 9 10 11 12 13 14 15 16 17 18 19 20 21
000
FTUS43 KGRR 070535
TAFAZO
TAF
KAZO 070535Z 0706/0806 26014G24KT P6SM BKN025
     FM071200 26013G23KT P6SM BKN035
     FM080000 25012G21KT P6SM BKN025=

USA.gov is the U.S. government's official web portal to all federal, state and local government web resources and services.